AirNav   Air Wisconsin pilot careers
 
 934 users online  

D23 Arcade Tri-County Airport
Arcade, New York, USA

GOING TO ARCADE?


FAA INFORMATION EFFECTIVE 01 FEBRUARY 2018

Location

FAA Identifier: D23
Lat/Long: 42-34-00.2230N / 078-25-34.0660W
42-34.003717N / 078-25.567767W
42.5667286 / -78.4261294
(estimated)
Elevation: 1745 ft. / 532 m (estimated)
Variation: 10W (1985)
From city: 2 miles N of ARCADE, NY
Time zone: UTC -5 (UTC -4 during Daylight Saving Time)
Zip code: 14009

Airport Operations

Airport use: Open to the public
Control tower: no
ARTCC: CLEVELAND CENTER
FSS: BUFFALO FLIGHT SERVICE STATION
NOTAMs facility: BUF (NOTAM-D service available)
Attendance: UNATNDD
Wind indicator: yes
Segmented circle: no
Lights: ACTVT MIRL RY 09/27 - 123.0.

Airport Communications

CTAF/UNICOM: 123.0
WX AWOS-3 at OLE (20 nm S): 118.375 (716-557-2001)
  • CD THRU FLT SVCS 1-888-766-8267.

Nearby radio navigation aids

VOR radial/distance  VOR name  Freq  Var
BUFr164/23.8BUFFALO VOR/DME116.4008W
ELZr336/34.3WELLSVILLE VORTAC111.4009W
GEEr251/34.5GENESEO VOR/DME108.2009W
JHWr061/38.3JAMESTOWN VOR/DME114.7007W

Airport Services

Parking: hangars and tiedowns
Airframe service: NONE
Powerplant service: NONE
Bottled oxygen: NONE
Bulk oxygen: NONE

Runway Information

Runway 9/27

Dimensions: 3220 x 60 ft. / 981 x 18 m
Surface: gravel, in fair condition
Runway edge lights: medium intensity
RUNWAY 9  RUNWAY 27
Traffic pattern: leftleft
Obstructions: 12 ft. tree, 5 ft. from runway, 66 ft. left of centerline
NUMEROUS TREES 30 TO 60 FT; 30 FT FM THRESHOLD BOTH SIDES OF RY 09 CNTRLNE.
20 ft. brush, 226 ft. from runway, 183 ft. right of centerline, 11:1 slope to clear

Runway 14/32

Dimensions: 2710 x 80 ft. / 826 x 24 m
Surface: turf, in good condition
RUNWAY 14  RUNWAY 32
Traffic pattern: leftleft
Obstructions: 33 ft. tree, 131 ft. from runway, 79 ft. left of centerline, 4:1 slope to clear
NUMEROUS TREES +15 TO +70 FT BOTH SIDES OF RY 14.
34 ft. trees, 25 ft. from runway, 83 ft. right of centerline
NUMEROUS TREES +15 TO +75 FT BOTH SIDES OF RY 32.

Airport Ownership and Management from official FAA records

Ownership: Privately-owned
Owner: LARRY SNYDER
8234 HUNTERS CREEK RD
HOLLAND, NY 14080
Phone 716-537-9172
Manager: LARRY SNYDER
8234 HUNTERS CREEK RD
HOLLAND, NY 14080
Phone 716-537-9172

Airport Operational Statistics

Aircraft based on the field: 12
Single engine airplanes: 12
    
Aircraft operations: avg 67/week *
86% local general aviation
14% transient general aviation
* for 12-month period ending 17 May 2016

Additional Remarks

ULTRALGT ACFT PROHIBITED.
ARPT CLSD WINTER MONTHS - CALL MGR

Instrument Procedures

There are no published instrument procedures at D23.

Some nearby airports with instrument procedures:

KOLE - Cattaraugus County-Olean Airport (20 nm S)
9G0 - Buffalo Airfield (22 nm NW)
KBUF - Buffalo Niagara International Airport (26 nm NW)
9G3 - Akron Airport (27 nm N)
KGVQ - Genesee County Airport (30 nm N)
 
Loc | Ops | Rwys | IFR | FBO | Links
Com | Nav | Svcs | Stats | Notes

AirNav Hotels Sweepstakes
 
Area around D23 (Arcade Tri-County Airport)
 
Road maps at: MapQuest Bing Google
 
Aerial photo
WARNING: Photo may not be current or correct
Aerial photo of D23 (Arcade Tri-County Airport)
Photo taken 30-Sep-2012
looking east.

Do you have a better or more recent aerial photo of Arcade Tri-County Airport that you would like to share? If so, please send us your photo.

 
Sectional chart

 
Airport distance calculator
Flying to Arcade Tri-County Airport? Find the distance to fly.

From to D23

Sunrise and sunset
Times for 20-Feb-2018
 Local
(UTC-5)
 Zulu
(UTC)
Morning civil twilight06:3611:36
Sunrise07:0412:04
Sunset17:5122:51
Evening civil twilight18:1923:19

Current date and time
Zulu (UTC)  21-Feb-2018 04:01:11
Local (UTC-5)  20-Feb-2018 23:01:11
 
METAR
KOLE 
20nm S 
210355Z AUTO 22010G14KT 10SM CLR 15/10 A3016 RMK AO2
KBUF 
26nm NW 
210354Z 20016KT 10SM FEW065 SCT240 19/12 A3005 RMK AO2 SLP177 T01890122
KDSV 
31nm E 
210354Z AUTO 15007KT 10SM CLR 17/11 A3012 RMK AO2 SLP206 T01670106
KELZ 
34nm SE 
210356Z AUTO 17009KT 10SM CLR 17/12 A3019 RMK AO2 SLP218 T01670117
KDKK 
38nm W 
210353Z AUTO 19013G20KT 10SM CLR 19/12 A3008 RMK AO2 SLP183 T01890117
KIAG 
40nm NW 
210353Z 20012KT 10SM CLR 17/11 A3003 RMK AO2 SLP172 T01720106
TAF
KBUF 
26nm NW 
210135Z 2102/2124 20012KT P6SM SCT035 SCT100 BKN200 WS015/22050KT FM210800 21012G20KT P6SM BKN050 WS015/22050KT FM211200 23014G22KT 6SM -RA SCT025 BKN035 FM211400 26014G20KT 5SM -RA BR OVC015 TEMPO 2114/2118 2SM -RA BR BKN007 FM211800 29012G18KT P6SM OVC015 FM212100 29012KT P6SM SCT035 BKN100
NOTAMs
Click for the latest NOTAMs
NOTAMs are issued by the DoD/FAA and will open in a separate window not controlled by AirNav.

 

 
 

Would you like to see your business listed on this page?

 If your business provides an interesting product or service to pilots, flight crews, aircraft, or users of the Arcade Tri-County Airport, you should consider listing it here.  To start the listing process, click on the button below
 
Add a business
 

Other Pages about Arcade Tri-County Airport

Update a link
 
Copyright © AirNav, LLC. All rights reserved. Privacy Policy  Contact